SDA171 NZWN-NZNR
Flight info
| Callsign | SDA171 |
|---|---|
| Flight time | 1h 4m |
| Altitude | 9000 |
| Route | KAMET H467 BINIT Y737 PM H429 SELDU H297 NR |
| Aircraft | C208/L-SDFGR/C |
Departure
| Time | 2026-04-26 14:08 |
|---|---|
| Airport | Wellington International Airport (NZWN) |
Arrival
| Time | 2026-04-26 15:12 |
|---|---|
| Airport | Hawke's Bay Airport (NZNR) |
| Time | Latitude | Longitude | Altitude | Speed | Heading |
|---|---|---|---|---|---|
| 2026-04-26 13:37 | -41.33120 | 174.81135 | 27 ft | 0 kts | 342° |
| 2026-04-26 13:53 | -41.33139 | 174.81143 | 25 ft | 0 kts | 343° |
| 2026-04-26 14:00 | -41.33233 | 174.80901 | 25 ft | 79 kts | 257° |
| 2026-04-26 14:01 | -41.33506 | 174.80766 | 25 ft | 0 kts | 182° |
| 2026-04-26 14:05 | -41.33508 | 174.80765 | 25 ft | 5 kts | 183° |
| 2026-04-26 14:05 | -41.33510 | 174.80765 | 25 ft | 0 kts | 189° |
| 2026-04-26 14:06 | -41.33511 | 174.80765 | 25 ft | 1 kts | 187° |
| 2026-04-26 14:06 | -41.33517 | 174.80764 | 27 ft | 0 kts | 187° |
| 2026-04-26 14:06 | -41.33526 | 174.80761 | 31 ft | 6 kts | 199° |
| 2026-04-26 14:07 | -41.33564 | 174.80718 | 25 ft | 4 kts | 235° |
| 2026-04-26 14:07 | -41.33572 | 174.80668 | 25 ft | 7 kts | 284° |
| 2026-04-26 14:07 | -41.33469 | 174.80640 | 32 ft | 35 kts | 4° |
| 2026-04-26 14:07 | -41.33044 | 174.80667 | 26 ft | 85 kts | 3° |
| 2026-04-26 14:08 | -41.32312 | 174.80718 | 50 ft | 121 kts | 3° |
| 2026-04-26 14:08 | -41.31443 | 174.80808 | 343 ft | 126 kts | 5° |
| 2026-04-26 14:08 | -41.30547 | 174.80906 | 571 ft | 136 kts | 5° |
| 2026-04-26 14:08 | -41.29568 | 174.80972 | 711 ft | 148 kts | 3° |
| 2026-04-26 14:09 | -41.28520 | 174.81046 | 918 ft | 148 kts | 2° |
| 2026-04-26 14:09 | -41.27562 | 174.81080 | 1424 ft | 132 kts | 1° |
| 2026-04-26 14:09 | -41.26626 | 174.80899 | 1541 ft | 141 kts | 344° |
| 2026-04-26 14:09 | -41.25710 | 174.80363 | 1656 ft | 147 kts | 333° |
| 2026-04-26 14:10 | -41.24793 | 174.79737 | 1785 ft | 149 kts | 336° |
| 2026-04-26 14:10 | -41.23829 | 174.79221 | 1927 ft | 149 kts | 340° |
| 2026-04-26 14:10 | -41.22848 | 174.78736 | 2003 ft | 153 kts | 340° |
| 2026-04-26 14:10 | -41.21854 | 174.78233 | 2142 ft | 152 kts | 340° |
| 2026-04-26 14:11 | -41.19948 | 174.77256 | 2553 ft | 144 kts | 340° |
| 2026-04-26 14:11 | -41.19029 | 174.76772 | 2786 ft | 140 kts | 339° |
| 2026-04-26 14:11 | -41.18136 | 174.76290 | 3013 ft | 137 kts | 339° |
| 2026-04-26 14:12 | -41.17256 | 174.75845 | 3261 ft | 135 kts | 351° |
| 2026-04-26 14:12 | -41.16395 | 174.76192 | 3498 ft | 134 kts | 38° |
| 2026-04-26 14:12 | -41.15694 | 174.76990 | 3748 ft | 132 kts | 38° |
| 2026-04-26 14:12 | -41.14995 | 174.77772 | 3997 ft | 131 kts | 38° |
| 2026-04-26 14:13 | -41.13734 | 174.79226 | 4438 ft | 105 kts | 38° |
| 2026-04-26 14:13 | -41.13218 | 174.79816 | 4633 ft | 92 kts | 36° |
| 2026-04-26 14:13 | -41.12741 | 174.80330 | 4767 ft | 86 kts | 33° |
| 2026-04-26 14:14 | -41.12277 | 174.80780 | 4889 ft | 79 kts | 20° |
| 2026-04-26 14:14 | -41.11759 | 174.80661 | 4916 ft | 78 kts | 350° |
| 2026-04-26 14:14 | -41.11295 | 174.80967 | 5110 ft | 75 kts | 19° |
| 2026-04-26 14:14 | -41.10822 | 174.81196 | 5283 ft | 74 kts | 26° |
| 2026-04-26 14:15 | -41.10363 | 174.81481 | 5418 ft | 73 kts | 22° |
| 2026-04-26 14:15 | -41.09910 | 174.81783 | 5544 ft | 74 kts | 19° |
| 2026-04-26 14:15 | -41.09450 | 174.82101 | 5672 ft | 77 kts | 20° |
| 2026-04-26 14:15 | -41.08960 | 174.82438 | 5815 ft | 82 kts | 22° |
| 2026-04-26 14:16 | -41.08435 | 174.82804 | 5970 ft | 89 kts | 23° |
| 2026-04-26 14:16 | -41.07861 | 174.83207 | 6131 ft | 98 kts | 24° |
| 2026-04-26 14:16 | -41.07228 | 174.83655 | 6294 ft | 108 kts | 24° |
| 2026-04-26 14:16 | -41.06536 | 174.84143 | 6468 ft | 117 kts | 24° |
| 2026-04-26 14:17 | -41.05794 | 174.84665 | 6642 ft | 124 kts | 25° |
| 2026-04-26 14:17 | -41.05019 | 174.85214 | 6793 ft | 132 kts | 25° |
| 2026-04-26 14:17 | -41.04189 | 174.85798 | 6941 ft | 138 kts | 25° |
| 2026-04-26 14:17 | -41.03330 | 174.86404 | 7073 ft | 142 kts | 24° |
| 2026-04-26 14:18 | -41.02452 | 174.87022 | 7212 ft | 144 kts | 24° |
| 2026-04-26 14:18 | -41.01590 | 174.87631 | 7323 ft | 136 kts | 25° |
| 2026-04-26 14:18 | -41.00759 | 174.88214 | 7439 ft | 135 kts | 25° |
| 2026-04-26 14:18 | -40.99927 | 174.88799 | 7557 ft | 136 kts | 25° |
| 2026-04-26 14:19 | -40.99093 | 174.89386 | 7673 ft | 136 kts | 25° |
| 2026-04-26 14:19 | -40.98270 | 174.89964 | 7793 ft | 136 kts | 24° |
| 2026-04-26 14:19 | -40.97432 | 174.90553 | 7916 ft | 136 kts | 24° |
| 2026-04-26 14:19 | -40.96594 | 174.91141 | 8040 ft | 136 kts | 24° |
| 2026-04-26 14:20 | -40.95755 | 174.91731 | 8165 ft | 137 kts | 24° |
| 2026-04-26 14:20 | -40.94912 | 174.92322 | 8292 ft | 137 kts | 24° |
| 2026-04-26 14:20 | -40.94068 | 174.92916 | 8418 ft | 138 kts | 24° |
| 2026-04-26 14:20 | -40.93221 | 174.93509 | 8540 ft | 138 kts | 24° |
| 2026-04-26 14:21 | -40.92371 | 174.94106 | 8675 ft | 138 kts | 23° |
| 2026-04-26 14:21 | -40.91520 | 174.94703 | 8802 ft | 138 kts | 23° |
| 2026-04-26 14:21 | -40.90725 | 174.95266 | 8891 ft | 124 kts | 22° |
| 2026-04-26 14:21 | -40.89958 | 174.95795 | 8932 ft | 129 kts | 22° |
| 2026-04-26 14:22 | -40.89141 | 174.96367 | 8938 ft | 137 kts | 23° |
| 2026-04-26 14:22 | -40.88281 | 174.96969 | 8946 ft | 143 kts | 23° |
| 2026-04-26 14:22 | -40.87387 | 174.97597 | 8945 ft | 148 kts | 23° |
| 2026-04-26 14:22 | -40.86466 | 174.98243 | 8947 ft | 151 kts | 23° |
| 2026-04-26 14:23 | -40.85531 | 174.98898 | 8947 ft | 153 kts | 23° |
| 2026-04-26 14:23 | -40.84581 | 174.99563 | 8946 ft | 157 kts | 24° |
| 2026-04-26 14:23 | -40.83594 | 175.00253 | 8944 ft | 164 kts | 24° |
| 2026-04-26 14:23 | -40.82588 | 175.00960 | 8945 ft | 168 kts | 24° |
| 2026-04-26 14:24 | -40.81547 | 175.01689 | 8946 ft | 171 kts | 24° |
| 2026-04-26 14:24 | -40.80492 | 175.02427 | 8949 ft | 172 kts | 24° |
| 2026-04-26 14:24 | -40.79425 | 175.03172 | 8939 ft | 174 kts | 25° |
| 2026-04-26 14:24 | -40.78352 | 175.03922 | 8942 ft | 175 kts | 25° |
| 2026-04-26 14:25 | -40.77273 | 175.04674 | 8946 ft | 176 kts | 25° |
| 2026-04-26 14:25 | -40.76189 | 175.05432 | 8944 ft | 176 kts | 25° |
| 2026-04-26 14:25 | -40.75104 | 175.06188 | 8945 ft | 176 kts | 25° |
| 2026-04-26 14:25 | -40.74033 | 175.06935 | 8944 ft | 177 kts | 25° |
| 2026-04-26 14:26 | -40.72948 | 175.07690 | 8945 ft | 176 kts | 25° |
| 2026-04-26 14:26 | -40.71864 | 175.08447 | 8945 ft | 176 kts | 25° |
| 2026-04-26 14:26 | -40.70778 | 175.09202 | 8945 ft | 176 kts | 25° |
| 2026-04-26 14:26 | -40.69693 | 175.09957 | 8946 ft | 176 kts | 25° |
| 2026-04-26 14:27 | -40.68607 | 175.10713 | 8944 ft | 178 kts | 25° |
| 2026-04-26 14:27 | -40.67494 | 175.11493 | 8947 ft | 184 kts | 25° |
| 2026-04-26 14:27 | -40.66354 | 175.12241 | 8946 ft | 187 kts | 20° |
| 2026-04-26 14:27 | -40.65150 | 175.12921 | 8947 ft | 190 kts | 21° |
| 2026-04-26 14:28 | -40.63936 | 175.13628 | 8949 ft | 191 kts | 21° |
| 2026-04-26 14:28 | -40.62716 | 175.14336 | 8947 ft | 192 kts | 21° |
| 2026-04-26 14:28 | -40.61488 | 175.15046 | 8947 ft | 193 kts | 21° |
| 2026-04-26 14:28 | -40.60291 | 175.15845 | 8941 ft | 193 kts | 34° |
| 2026-04-26 14:29 | -40.59410 | 175.17109 | 8928 ft | 183 kts | 52° |
| 2026-04-26 14:29 | -40.58656 | 175.18414 | 8928 ft | 176 kts | 50° |
| 2026-04-26 14:29 | -40.57918 | 175.19668 | 8929 ft | 171 kts | 51° |
| 2026-04-26 14:29 | -40.57208 | 175.20881 | 8928 ft | 168 kts | 51° |
| 2026-04-26 14:30 | -40.56500 | 175.22096 | 8930 ft | 167 kts | 51° |
| 2026-04-26 14:30 | -40.55796 | 175.23302 | 8930 ft | 166 kts | 51° |
| 2026-04-26 14:30 | -40.55096 | 175.24502 | 8928 ft | 165 kts | 51° |
| 2026-04-26 14:30 | -40.54396 | 175.25701 | 8928 ft | 165 kts | 51° |
| 2026-04-26 14:31 | -40.53697 | 175.26897 | 8928 ft | 165 kts | 51° |
| 2026-04-26 14:31 | -40.52999 | 175.28092 | 8939 ft | 165 kts | 51° |
| 2026-04-26 14:31 | -40.52302 | 175.29285 | 8939 ft | 165 kts | 51° |
| 2026-04-26 14:31 | -40.51613 | 175.30464 | 8939 ft | 165 kts | 51° |
| 2026-04-26 14:32 | -40.50915 | 175.31656 | 8934 ft | 165 kts | 50° |
| 2026-04-26 14:32 | -40.50216 | 175.32851 | 8934 ft | 165 kts | 50° |
| 2026-04-26 14:32 | -40.49518 | 175.34043 | 8934 ft | 165 kts | 51° |
| 2026-04-26 14:32 | -40.48819 | 175.35237 | 8934 ft | 165 kts | 50° |
| 2026-04-26 14:33 | -40.48120 | 175.36429 | 8932 ft | 165 kts | 50° |
| 2026-04-26 14:33 | -40.47421 | 175.37622 | 8932 ft | 165 kts | 50° |
| 2026-04-26 14:33 | -40.46731 | 175.38799 | 8931 ft | 165 kts | 50° |
| 2026-04-26 14:33 | -40.46031 | 175.39992 | 8930 ft | 165 kts | 50° |
| 2026-04-26 14:34 | -40.45331 | 175.41186 | 8932 ft | 165 kts | 50° |
| 2026-04-26 14:34 | -40.44630 | 175.42380 | 8932 ft | 165 kts | 50° |
| 2026-04-26 14:34 | -40.43929 | 175.43576 | 8938 ft | 165 kts | 51° |
| 2026-04-26 14:34 | -40.43229 | 175.44765 | 8938 ft | 165 kts | 51° |
| 2026-04-26 14:35 | -40.42530 | 175.45954 | 8939 ft | 164 kts | 51° |
| 2026-04-26 14:35 | -40.41831 | 175.47143 | 8938 ft | 164 kts | 51° |
| 2026-04-26 14:35 | -40.41133 | 175.48329 | 8938 ft | 164 kts | 51° |
| 2026-04-26 14:35 | -40.40444 | 175.49501 | 8938 ft | 164 kts | 51° |
| 2026-04-26 14:36 | -40.39744 | 175.50689 | 8938 ft | 164 kts | 51° |
| 2026-04-26 14:36 | -40.39045 | 175.51876 | 8937 ft | 164 kts | 51° |
| 2026-04-26 14:36 | -40.38344 | 175.53063 | 8931 ft | 165 kts | 52° |
| 2026-04-26 14:36 | -40.37644 | 175.54255 | 8930 ft | 165 kts | 52° |
| 2026-04-26 14:37 | -40.36941 | 175.55448 | 8930 ft | 165 kts | 52° |
| 2026-04-26 14:37 | -40.36238 | 175.56639 | 8931 ft | 165 kts | 52° |
| 2026-04-26 14:37 | -40.35536 | 175.57831 | 8932 ft | 165 kts | 52° |
| 2026-04-26 14:37 | -40.34841 | 175.59006 | 8932 ft | 165 kts | 52° |
| 2026-04-26 14:38 | -40.34138 | 175.60198 | 8934 ft | 165 kts | 52° |
| 2026-04-26 14:38 | -40.33434 | 175.61390 | 8934 ft | 165 kts | 52° |
| 2026-04-26 14:38 | -40.32729 | 175.62584 | 8935 ft | 166 kts | 52° |
| 2026-04-26 14:38 | -40.32259 | 175.63379 | 8938 ft | 168 kts | 51° |
| 2026-04-26 14:39 | -40.31087 | 175.64749 | 8950 ft | 172 kts | 35° |
| 2026-04-26 14:39 | -40.30132 | 175.65714 | 8949 ft | 174 kts | 37° |
| 2026-04-26 14:39 | -40.29175 | 175.66698 | 8952 ft | 176 kts | 37° |
| 2026-04-26 14:39 | -40.28208 | 175.67690 | 8952 ft | 177 kts | 37° |
| 2026-04-26 14:40 | -40.27249 | 175.68672 | 8950 ft | 178 kts | 37° |
| 2026-04-26 14:40 | -40.26274 | 175.69669 | 8951 ft | 178 kts | 37° |
| 2026-04-26 14:40 | -40.25295 | 175.70670 | 8952 ft | 178 kts | 37° |
| 2026-04-26 14:40 | -40.24317 | 175.71670 | 8954 ft | 178 kts | 37° |
| 2026-04-26 14:41 | -40.23338 | 175.72670 | 8951 ft | 179 kts | 37° |
| 2026-04-26 14:41 | -40.22358 | 175.73670 | 8956 ft | 179 kts | 37° |
| 2026-04-26 14:41 | -40.21379 | 175.74669 | 8958 ft | 178 kts | 37° |
| 2026-04-26 14:41 | -40.20400 | 175.75669 | 8959 ft | 178 kts | 37° |
| 2026-04-26 14:42 | -40.19423 | 175.76665 | 8959 ft | 178 kts | 37° |
| 2026-04-26 14:42 | -40.18458 | 175.77649 | 8961 ft | 178 kts | 37° |
| 2026-04-26 14:42 | -40.17481 | 175.78644 | 8958 ft | 178 kts | 37° |
| 2026-04-26 14:42 | -40.16504 | 175.79641 | 8959 ft | 178 kts | 37° |
| 2026-04-26 14:43 | -40.15523 | 175.80640 | 8965 ft | 179 kts | 37° |
| 2026-04-26 14:43 | -40.14540 | 175.81641 | 8962 ft | 179 kts | 37° |
| 2026-04-26 14:43 | -40.13558 | 175.82640 | 8964 ft | 179 kts | 37° |
| 2026-04-26 14:43 | -40.12576 | 175.83638 | 8967 ft | 179 kts | 37° |
| 2026-04-26 14:44 | -40.11597 | 175.84636 | 8966 ft | 178 kts | 37° |
| 2026-04-26 14:44 | -40.10620 | 175.85629 | 8967 ft | 178 kts | 37° |
| 2026-04-26 14:44 | -40.09653 | 175.86611 | 8968 ft | 179 kts | 37° |
| 2026-04-26 14:44 | -40.08671 | 175.87608 | 8968 ft | 179 kts | 37° |
| 2026-04-26 14:45 | -40.07687 | 175.88607 | 8968 ft | 179 kts | 37° |
| 2026-04-26 14:45 | -40.07035 | 175.89270 | 8967 ft | 179 kts | 37° |
| 2026-04-26 14:45 | -40.05723 | 175.90600 | 8968 ft | 179 kts | 37° |
| 2026-04-26 14:45 | -40.04740 | 175.91598 | 8972 ft | 179 kts | 37° |
| 2026-04-26 14:46 | -40.03759 | 175.92592 | 8970 ft | 178 kts | 37° |
| 2026-04-26 14:46 | -40.02793 | 175.93572 | 8970 ft | 178 kts | 37° |
| 2026-04-26 14:46 | -40.01813 | 175.94564 | 8968 ft | 178 kts | 37° |
| 2026-04-26 14:46 | -40.00834 | 175.95556 | 8971 ft | 178 kts | 37° |
| 2026-04-26 14:47 | -39.99853 | 175.96550 | 8971 ft | 179 kts | 37° |
| 2026-04-26 14:47 | -39.98871 | 175.97544 | 8971 ft | 179 kts | 37° |
| 2026-04-26 14:47 | -39.97889 | 175.98537 | 8972 ft | 179 kts | 37° |
| 2026-04-26 14:47 | -39.96908 | 175.99529 | 8971 ft | 179 kts | 37° |
| 2026-04-26 14:48 | -39.95925 | 176.00522 | 8968 ft | 179 kts | 37° |
| 2026-04-26 14:48 | -39.94955 | 176.01502 | 8971 ft | 179 kts | 37° |
| 2026-04-26 14:48 | -39.93967 | 176.02501 | 8969 ft | 180 kts | 37° |
| 2026-04-26 14:48 | -39.92977 | 176.03501 | 8968 ft | 181 kts | 37° |
| 2026-04-26 14:49 | -39.91986 | 176.04500 | 8965 ft | 180 kts | 37° |
| 2026-04-26 14:49 | -39.90996 | 176.05500 | 8967 ft | 180 kts | 37° |
| 2026-04-26 14:49 | -39.90006 | 176.06499 | 8961 ft | 179 kts | 37° |
| 2026-04-26 14:49 | -39.89018 | 176.07492 | 8964 ft | 179 kts | 37° |
| 2026-04-26 14:50 | -39.88043 | 176.08477 | 8968 ft | 180 kts | 37° |
| 2026-04-26 14:50 | -39.87056 | 176.09475 | 8964 ft | 179 kts | 37° |
| 2026-04-26 14:50 | -39.86075 | 176.10465 | 8966 ft | 179 kts | 37° |
| 2026-04-26 14:50 | -39.85086 | 176.11457 | 8962 ft | 180 kts | 36° |
| 2026-04-26 14:51 | -39.84095 | 176.12448 | 8969 ft | 180 kts | 37° |
| 2026-04-26 14:51 | -39.83273 | 176.13661 | 8962 ft | 180 kts | 58° |
| 2026-04-26 14:51 | -39.82596 | 176.15022 | 8966 ft | 178 kts | 56° |
| 2026-04-26 14:51 | -39.81900 | 176.16366 | 8966 ft | 180 kts | 56° |
| 2026-04-26 14:52 | -39.81205 | 176.17725 | 8965 ft | 180 kts | 57° |
| 2026-04-26 14:52 | -39.80520 | 176.19062 | 8966 ft | 180 kts | 57° |
| 2026-04-26 14:52 | -39.79826 | 176.20414 | 8967 ft | 180 kts | 57° |
| 2026-04-26 14:52 | -39.79133 | 176.21763 | 8966 ft | 180 kts | 57° |
| 2026-04-26 14:53 | -39.78441 | 176.23113 | 8968 ft | 180 kts | 57° |
| 2026-04-26 14:53 | -39.77747 | 176.24465 | 8968 ft | 180 kts | 57° |
| 2026-04-26 14:53 | -39.77054 | 176.25816 | 8968 ft | 180 kts | 57° |
| 2026-04-26 14:53 | -39.76357 | 176.27169 | 8968 ft | 180 kts | 57° |
| 2026-04-26 14:54 | -39.75662 | 176.28524 | 8966 ft | 180 kts | 57° |
| 2026-04-26 14:54 | -39.74973 | 176.29860 | 8965 ft | 180 kts | 57° |
| 2026-04-26 14:54 | -39.74276 | 176.31220 | 8958 ft | 182 kts | 57° |
| 2026-04-26 14:54 | -39.73572 | 176.32585 | 8955 ft | 181 kts | 57° |
| 2026-04-26 14:55 | -39.72869 | 176.33952 | 8958 ft | 182 kts | 57° |
| 2026-04-26 14:55 | -39.72163 | 176.35319 | 8954 ft | 183 kts | 57° |
| 2026-04-26 14:55 | -39.71459 | 176.36688 | 8956 ft | 182 kts | 57° |
| 2026-04-26 14:55 | -39.70754 | 176.38054 | 8957 ft | 182 kts | 57° |
| 2026-04-26 14:56 | -39.70050 | 176.39420 | 8959 ft | 182 kts | 57° |
| 2026-04-26 14:56 | -39.69345 | 176.40786 | 8961 ft | 182 kts | 57° |
| 2026-04-26 14:56 | -39.68648 | 176.42137 | 8961 ft | 182 kts | 57° |
| 2026-04-26 14:56 | -39.67943 | 176.43502 | 8959 ft | 182 kts | 57° |
| 2026-04-26 14:57 | -39.67239 | 176.44865 | 8961 ft | 181 kts | 57° |
| 2026-04-26 14:57 | -39.66536 | 176.46225 | 8961 ft | 181 kts | 57° |
| 2026-04-26 14:57 | -39.65833 | 176.47584 | 8961 ft | 181 kts | 57° |
| 2026-04-26 14:57 | -39.65130 | 176.48943 | 8962 ft | 181 kts | 57° |
| 2026-04-26 14:58 | -39.64424 | 176.50307 | 8953 ft | 182 kts | 57° |
| 2026-04-26 14:58 | -39.63721 | 176.51666 | 8953 ft | 182 kts | 57° |
| 2026-04-26 14:58 | -39.63017 | 176.53025 | 8954 ft | 182 kts | 57° |
| 2026-04-26 14:58 | -39.62321 | 176.54369 | 8956 ft | 182 kts | 57° |
| 2026-04-26 14:59 | -39.61615 | 176.55731 | 8955 ft | 182 kts | 57° |
| 2026-04-26 14:59 | -39.60910 | 176.57091 | 8954 ft | 182 kts | 57° |
| 2026-04-26 14:59 | -39.60204 | 176.58451 | 8955 ft | 182 kts | 57° |
| 2026-04-26 14:59 | -39.59735 | 176.59354 | 8955 ft | 182 kts | 57° |
| 2026-04-26 15:00 | -39.58790 | 176.61174 | 8955 ft | 182 kts | 57° |
| 2026-04-26 15:00 | -39.58082 | 176.62537 | 8955 ft | 182 kts | 57° |
| 2026-04-26 15:00 | -39.57374 | 176.63898 | 8954 ft | 182 kts | 57° |
| 2026-04-26 15:00 | -39.56676 | 176.65241 | 8914 ft | 183 kts | 57° |
| 2026-04-26 15:01 | -39.56009 | 176.66521 | 8691 ft | 162 kts | 57° |
| 2026-04-26 15:01 | -39.55400 | 176.67689 | 8399 ft | 152 kts | 57° |
| 2026-04-26 15:01 | -39.55047 | 176.68898 | 8103 ft | 140 kts | 97° |
| 2026-04-26 15:01 | -39.55487 | 176.69925 | 7769 ft | 131 kts | 148° |
| 2026-04-26 15:02 | -39.56262 | 176.70524 | 7452 ft | 129 kts | 150° |
| 2026-04-26 15:02 | -39.57035 | 176.71108 | 7136 ft | 128 kts | 150° |
| 2026-04-26 15:02 | -39.57808 | 176.71669 | 6822 ft | 127 kts | 150° |
| 2026-04-26 15:02 | -39.58573 | 176.72199 | 6513 ft | 126 kts | 150° |
| 2026-04-26 15:03 | -39.59348 | 176.72726 | 6180 ft | 126 kts | 148° |
| 2026-04-26 15:03 | -39.60047 | 176.73402 | 5849 ft | 125 kts | 141° |
| 2026-04-26 15:03 | -39.60729 | 176.74100 | 5516 ft | 125 kts | 141° |
| 2026-04-26 15:03 | -39.61407 | 176.74798 | 5197 ft | 124 kts | 141° |
| 2026-04-26 15:04 | -39.61977 | 176.75622 | 4874 ft | 124 kts | 115° |
| 2026-04-26 15:04 | -39.62294 | 176.76568 | 4825 ft | 106 kts | 115° |
| 2026-04-26 15:04 | -39.62580 | 176.77401 | 4729 ft | 98 kts | 115° |
| 2026-04-26 15:04 | -39.62851 | 176.78189 | 4582 ft | 97 kts | 115° |
| 2026-04-26 15:05 | -39.63128 | 176.78988 | 4418 ft | 97 kts | 115° |
| 2026-04-26 15:05 | -39.63223 | 176.79257 | 4365 ft | 98 kts | 115° |
| 2026-04-26 15:05 | -39.63672 | 176.80685 | 3833 ft | 118 kts | 96° |
| 2026-04-26 15:05 | -39.63393 | 176.81718 | 3390 ft | 130 kts | 46° |
| 2026-04-26 15:06 | -39.62748 | 176.82563 | 3027 ft | 130 kts | 51° |
| 2026-04-26 15:06 | -39.62191 | 176.83430 | 2845 ft | 120 kts | 49° |
| 2026-04-26 15:06 | -39.61657 | 176.84234 | 2723 ft | 116 kts | 50° |
| 2026-04-26 15:06 | -39.61111 | 176.84992 | 2580 ft | 115 kts | 35° |
| 2026-04-26 15:07 | -39.59566 | 176.85321 | 2322 ft | 114 kts | 6° |
| 2026-04-26 15:07 | -39.58790 | 176.85412 | 2179 ft | 110 kts | 6° |
| 2026-04-26 15:07 | -39.58043 | 176.85494 | 2032 ft | 106 kts | 5° |
| 2026-04-26 15:08 | -39.57321 | 176.85574 | 1926 ft | 100 kts | 6° |
| 2026-04-26 15:08 | -39.56643 | 176.85647 | 1822 ft | 96 kts | 6° |
| 2026-04-26 15:08 | -39.55983 | 176.85720 | 1705 ft | 95 kts | 5° |
| 2026-04-26 15:08 | -39.55330 | 176.85791 | 1573 ft | 93 kts | 5° |
| 2026-04-26 15:09 | -39.54697 | 176.85861 | 1464 ft | 89 kts | 4° |
| 2026-04-26 15:09 | -39.54112 | 176.85926 | 1349 ft | 84 kts | 2° |
| 2026-04-26 15:09 | -39.53544 | 176.85989 | 1218 ft | 79 kts | 2° |
| 2026-04-26 15:09 | -39.53038 | 176.86047 | 1081 ft | 70 kts | 1° |
| 2026-04-26 15:10 | -39.52539 | 176.86082 | 889 ft | 71 kts | 0° |
| 2026-04-26 15:10 | -39.52225 | 176.86127 | 801 ft | 67 kts | 3° |
| 2026-04-26 15:10 | -39.51609 | 176.86204 | 680 ft | 70 kts | 355° |
| 2026-04-26 15:10 | -39.51098 | 176.86252 | 671 ft | 76 kts | 359° |
| 2026-04-26 15:11 | -39.50559 | 176.86304 | 651 ft | 78 kts | 1° |
| 2026-04-26 15:11 | -39.50015 | 176.86370 | 554 ft | 81 kts | 2° |
| 2026-04-26 15:11 | -39.49455 | 176.86434 | 421 ft | 82 kts | 1° |
| 2026-04-26 15:11 | -39.48898 | 176.86503 | 289 ft | 79 kts | 2° |
| 2026-04-26 15:12 | -39.48366 | 176.86563 | 189 ft | 75 kts | 1° |
| 2026-04-26 15:12 | -39.47870 | 176.86621 | 93 ft | 68 kts | 1° |
| 2026-04-26 15:12 | -39.47435 | 176.86665 | 61 ft | 54 kts | 8° |
| 2026-04-26 15:12 | -39.47196 | 176.86694 | 61 ft | 28 kts | 2° |
| 2026-04-26 15:13 | -39.46991 | 176.86714 | 58 ft | 31 kts | 7° |
| 2026-04-26 15:13 | -39.46773 | 176.86741 | 58 ft | 31 kts | 4° |
| 2026-04-26 15:13 | -39.46667 | 176.86758 | 58 ft | 4 kts | 30° |
| 2026-04-26 15:13 | -39.46662 | 176.86833 | 58 ft | 14 kts | 95° |
| 2026-04-26 15:14 | -39.46671 | 176.86972 | 60 ft | 12 kts | 96° |
| 2026-04-26 15:14 | -39.46673 | 176.86999 | 60 ft | 4 kts | 95° |
| 2026-04-26 15:14 | -39.46665 | 176.87062 | 60 ft | 9 kts | 71° |
| 2026-04-26 15:14 | -39.46633 | 176.87110 | 60 ft | 6 kts | 58° |
| 2026-04-26 15:15 | -39.46637 | 176.87149 | 60 ft | 0 kts | 102° |
| 2026-04-26 15:30 | -39.46655 | 176.87154 | 60 ft | 0 kts | 201° |